Flight Track Log - Related Links

Times and Time Zones

All times are in EDT time to prevent confusion due to time zone crossing. See the SWA293 flight status page for this flight to view local times or setup timezone preferences in your user account.

Time Position Orientation Groundspeed Altitude Reporting Facility
EDT Latitude Longitude Course Direction KTS MPH feet Rate Location/Type
Sun 10:00:55 AM 47.4636 -122.3078 359° North 164 189 1,200  Level Seattle Center
Sun 10:02:07 AM 47.5261 -122.3094 359° North 203 234 3,500 2,196 Climbing Seattle Center
Sun 10:02:47 AM 47.5697 -122.3094 360° North 223 257 5,300 2,733 Climbing Seattle Center
Sun 10:03:48 AM 47.6106 -122.2383 50° Northeast 275 316 8,100 2,579 Climbing Seattle Center
Sun 10:04:48 AM 47.6072 -122.1139 92° East 303 349 10,500 2,132 Climbing Seattle Center
Sun 10:05:49 AM 47.5517 -121.9919 124° Southeast 360 414 12,400 1,983 Climbing Seattle Center
Sun 10:06:49 AM 47.4922 -121.8583 123° Southeast 387 445 14,500 2,281 Climbing Seattle Center
Sun 10:07:50 AM 47.4328 -121.7108 121° Southeast 420 483 17,000 2,182 Climbing Seattle Center
Sun 10:08:50 AM 47.4208 -121.5303 96° East 445 512 18,900 1,934 Climbing Seattle Center
Sun 10:09:51 AM 47.4053 -121.3464 97° East 457 526 20,900 1,918 Climbing Seattle Center
Sun 10:10:52 AM 47.3906 -121.1553 96° East 473 544 22,800 1,835 Climbing Seattle Center
Sun 10:11:52 AM 47.3747 -120.9622 97° East 481 554 24,600 1,636 Climbing Seattle Center
Sun 10:12:53 AM 47.3597 -120.7786 97° East 490 564 26,100 1,438 Climbing Seattle Center
Sun 10:13:53 AM 47.3436 -120.5753 97° East 500 575 27,500 1,438 Climbing Seattle Center
Sun 10:14:54 AM 47.3244 -120.3244 96° East 512 589 29,000 1,289 Climbing Seattle Center
Sun 10:15:54 AM 47.3033 -120.1108 98° East 525 604 30,100 1,190 Climbing Seattle Center
Sun 10:16:55 AM 47.2814 -119.8936 98° East 535 616 31,400 1,279 Climbing Seattle Center
Sun 10:17:56 AM 47.2628 -119.6789 97° East 533 613 32,700 1,140 Climbing Seattle Center
Sun 10:18:56 AM 47.2417 -119.4619 98° East 537 618 33,700 1,091 Climbing Seattle Center
Sun 10:19:57 AM 47.2194 -119.2453 99° East 538 619 34,900 639 Climbing Seattle Center
Sun 10:20:58 AM 47.1989 -119.0350 98° East 528 608 35,000 50 Climbing Seattle Center
Sun 10:21:58 AM 47.1761 -118.8231 99° East 526 605 35,000  Level Seattle Center
Sun 10:22:59 AM 47.1544 -118.6108 98° East 527 606 35,000  Level Seattle Center
Sun 10:24:00 AM 47.1331 -118.4006 98° East 525 604 35,000  Level Seattle Center
Sun 10:25:00 AM 47.1094 -118.1883 99° East 528 608 35,000  Level Seattle Center
Sun 10:26:01 AM 47.0872 -117.9761 99° East 529 609 35,000  Level Seattle Center
Sun 10:27:02 AM 47.0639 -117.7658 99° East 528 608 35,000  Level Seattle Center
Sun 10:28:02 AM 47.0411 -117.5525 99° East 534 615 35,000  Level Seattle Center
Sun 10:29:03 AM 47.0167 -117.3372 99° East 540 621 35,000  Level Seattle Center
Sun 10:30:04 AM 46.9864 -117.0792 100° East 542 624 35,000  Level Seattle Center
Sun 10:31:04 AM 46.9606 -116.8628 100° East 546 628 35,000  Level Seattle Center
Sun 10:32:05 AM 46.9350 -116.6458 100° East 545 627 35,000  Level Seattle Center
Sun 10:33:06 AM 46.9078 -116.4311 100° East 542 624 35,000  Level Seattle Center
Sun 10:34:07 AM 46.8817 -116.2153 100° East 542 624 35,000  Level Seattle Center
Sun 10:35:07 AM 46.8539 -115.9992 101° East 544 626 35,000  Level Seattle Center
Sun 10:36:08 AM 46.8261 -115.7833 101° East 545 627 35,000  Level Seattle Center
Sun 10:37:09 AM 46.7978 -115.5686 101° East 542 624 35,000  Level Seattle Center
Sun 10:38:09 AM 46.7675 -115.3383 101° East 542 624 35,000  Level Seattle Center
Sun 10:39:10 AM 46.7381 -115.1239 101° East 543 625 35,000  Level Seattle Center
Sun 10:40:11 AM 46.7086 -114.9094 101° East 543 625 35,000  Level Seattle Center
Sun 10:40:42 AM 46.6917 -114.7825 101° East 538 619 35,000  Level Salt Lake Center
Sun 10:41:44 AM 46.6614 -114.5694 102° East 541 623 35,000  Level Salt Lake Center
Sun 10:42:45 AM 46.6311 -114.3575 102° East 539 620 35,000  Level Salt Lake Center
Sun 10:43:47 AM 46.6003 -114.1461 102° East 538 619 35,000  Level Salt Lake Center
Sun 10:44:48 AM 46.5694 -113.9339 102° East 539 620 35,000  Level Salt Lake Center
Sun 10:45:50 AM 46.5392 -113.7228 102° East 537 618 35,000  Level Salt Lake Center
Sun 10:46:52 AM 46.5003 -113.4697 102° East 539 620 35,000  Level Salt Lake Center
Sun 10:47:53 AM 46.4711 -113.2767 102° East 538 619 35,000  Level Salt Lake Center
Sun 10:48:55 AM 46.4392 -113.0656 102° East 541 623 35,000  Level Salt Lake Center
Sun 10:49:57 AM 46.4022 -112.8414 103° East 536 617 35,000  Level Salt Lake Center
Sun 10:50:58 AM 46.3672 -112.6322 104° East 535 616 35,000  Level Salt Lake Center
Sun 10:52:00 AM 46.3339 -112.4203 103° East 538 619 35,000  Level Salt Lake Center
Sun 10:53:02 AM 46.2997 -112.2083 103° East 541 623 35,000  Level Salt Lake Center
Sun 10:54:03 AM 46.2594 -111.9531 103° East 542 624 35,000  Level Salt Lake Center
Sun 10:55:05 AM 46.2231 -111.7425 104° East 539 620 35,000  Level Salt Lake Center
Sun 10:56:07 AM 46.1878 -111.5311 103° East 539 620 35,000  Level Salt Lake Center
Sun 10:57:09 AM 46.1514 -111.3203 104° East 538 619 35,000  Level Salt Lake Center
Sun 10:58:10 AM 46.1161 -111.1086 103° East 537 618 35,000  Level Salt Lake Center
Sun 10:59:12 AM 46.0792 -110.8986 104° East 535 616 35,000  Level Salt Lake Center
Sun 11:00:14 AM 46.0414 -110.6892 104° East 535 616 35,000  Level Salt Lake Center
Sun 11:01:16 AM 46.0022 -110.4775 105° East 531 611 35,000  Level Salt Lake Center
Sun 11:02:18 AM 45.9600 -110.2461 105° East 534 615 35,000  Level Salt Lake Center
Sun 11:03:19 AM 45.9239 -110.0469 105° East 536 617 35,000  Level Salt Lake Center
Sun 11:04:21 AM 45.8811 -109.8156 105° East 538 619 35,000  Level Salt Lake Center
Sun 11:05:23 AM 45.8458 -109.6156 104° East 538 619 35,000  Level Salt Lake Center
Sun 11:06:25 AM 45.8006 -109.3853 106° East 538 619 35,000  Level Salt Lake Center
Sun 11:07:27 AM 45.7614 -109.1878 106° East 538 619 35,000  Level Salt Lake Center
Sun 11:08:29 AM 45.7228 -108.9911 106° East 536 617 35,000  Level Salt Lake Center
Sun 11:09:31 AM 45.6764 -108.7614 106° East 539 620 35,000  Level Salt Lake Center
Sun 11:10:33 AM 45.6381 -108.5656 106° East 535 616 35,000  Level Salt Lake Center
Sun 11:11:35 AM 45.5939 -108.3364 105° East 535 616 35,000  Level Salt Lake Center
Sun 11:12:37 AM 45.5533 -108.1419 107° East 533 613 35,000  Level Salt Lake Center
Sun 11:13:39 AM 45.5072 -107.9164 106° East 531 611 35,000  Level Salt Lake Center
Sun 11:14:40 AM 45.4678 -107.7219 106° East 531 611 35,000  Level Salt Lake Center
Sun 11:15:42 AM 45.4269 -107.5292 107° East 528 608 35,000  Level Salt Lake Center
Sun 11:16:44 AM 45.3783 -107.3025 107° East 534 615 35,000  Level Salt Lake Center
Sun 11:17:46 AM 45.3381 -107.1089 106° East 532 612 35,000  Level Salt Lake Center
Sun 11:18:48 AM 45.2889 -106.8847 107° East 533 613 35,000  Level Salt Lake Center
Sun 11:19:50 AM 45.2475 -106.6903 107° East 536 617 35,000  Level Salt Lake Center
Sun 11:20:52 AM 45.1978 -106.4686 108° East 530 610 35,000  Level Salt Lake Center
Sun 11:21:54 AM 45.1553 -106.2781 107° East 531 611 35,000  Level Salt Lake Center
Sun 11:22:45 AM 45.1197 -106.1217 108° East 526 605 35,000  Level Denver Center
Sun 11:23:47 AM 45.0694 -105.9008 108° East 526 605 35,000  Level Denver Center
Sun 11:24:49 AM 45.0269 -105.7122 108° East 525 604 35,000  Level Denver Center
Sun 11:25:52 AM 44.9764 -105.4942 108° East 524 603 35,000  Level Denver Center
Sun 11:26:54 AM 44.9328 -105.3083 108° East 522 601 35,000  Level Denver Center
Sun 11:27:56 AM 44.8817 -105.0919 108° East 521 600 35,000  Level Denver Center
Sun 11:28:58 AM 44.8381 -104.9050 108° East 522 601 35,000  Level Denver Center
Sun 11:30:00 AM 44.7869 -104.6906 108° East 519 597 35,000  Level Denver Center
Sun 11:31:02 AM 44.7422 -104.5036 109° East 517 595 35,000  Level Denver Center
Sun 11:32:04 AM 44.6972 -104.3206 109° East 517 595 35,000  Level Denver Center
Sun 11:33:06 AM 44.6442 -104.1061 109° East 521 600 35,000  Level Denver Center
Sun 11:34:08 AM 44.5983 -103.9242 109° East 518 596 35,000  Level Denver Center
Sun 11:35:10 AM 44.5458 -103.7103 109° East 519 597 35,000  Level Denver Center
Sun 11:36:12 AM 44.4967 -103.5164 110° East 516 594 35,000  Level Denver Center
Sun 11:37:14 AM 44.4486 -103.3278 110° East 516 594 35,000  Level Denver Center
Sun 11:38:16 AM 44.4019 -103.1400 109° East 513 590 35,000  Level Denver Center
Sun 11:39:18 AM 44.3522 -102.9525 110° East 514 592 35,000  Level Denver Center
Sun 11:40:20 AM 44.3044 -102.7667 110° East 512 589 35,000  Level Denver Center
Sun 11:41:22 AM 44.2450 -102.5414 110° East 516 594 35,000  Level Denver Center
Sun 11:42:24 AM 44.1950 -102.3542 110° East 516 594 35,000  Level Denver Center
Sun 11:43:26 AM 44.1447 -102.1689 111° Southeast 515 593 35,000  Level Denver Center
Sun 11:44:28 AM 44.1033 -102.0197 111° Southeast 515 593 35,000  Level Denver Center
Sun 11:45:30 AM 44.0428 -101.7972 111° Southeast 515 593 35,000  Level Denver Center
Sun 11:46:31 AM 43.9942 -101.6167 110° East 511 588 35,000  Level Minneapolis Center
Sun 11:47:33 AM 43.9447 -101.4333 110° East 511 588 35,000  Level Minneapolis Center
Sun 11:48:37 AM 43.8833 -101.2144 111° Southeast 511 588 35,000  Level Denver Center
Sun 11:49:39 AM 43.8328 -101.0314 111° Southeast 512 589 35,000  Level Denver Center
Sun 11:50:41 AM 43.7817 -100.8492 111° Southeast 510 587 35,000  Level Denver Center
Sun 11:51:43 AM 43.7289 -100.6664 112° Southeast 512 589 35,000  Level Denver Center
Sun 11:52:42 AM 43.6797 -100.4875 111° Southeast 509 586 35,000  Level Minneapolis Center
Sun 11:53:59 AM 43.6167 -100.2706 112° Southeast 508 585 35,000  Level Denver Center
Sun 11:54:46 AM 43.5639 -100.0878 112° Southeast 512 589 35,000  Level Minneapolis Center
Sun 11:55:47 AM 43.5100 -99.9069 112° Southeast 513 590 35,000  Level Minneapolis Center
Sun 11:56:49 AM 43.4572 -99.7236 112° Southeast 515 593 35,000  Level Minneapolis Center
Sun 11:57:51 AM 43.4028 -99.5422 112° Southeast 516 594 35,000  Level Minneapolis Center
Sun 11:58:53 AM 43.3478 -99.3586 112° Southeast 519 597 35,000  Level Minneapolis Center
Sun 11:59:55 AM 43.2936 -99.1775 112° Southeast 515 593 35,000  Level Minneapolis Center
Sun 12:00:57 PM 43.2311 -98.9717 113° Southeast 517 595 35,000  Level Minneapolis Center
Sun 12:01:59 PM 43.1761 -98.7925 113° Southeast 515 593 35,000  Level Minneapolis Center
Sun 12:03:01 PM 43.1206 -98.6117 113° Southeast 517 595 35,000  Level Minneapolis Center
Sun 12:04:03 PM 43.0650 -98.4328 113° Southeast 515 593 35,000  Level Minneapolis Center
Sun 12:05:05 PM 42.9975 -98.2189 113° Southeast 514 592 35,000  Level Minneapolis Center
Sun 12:06:06 PM 42.9433 -98.0439 113° Southeast 506 582 35,000  Level Minneapolis Center
Sun 12:07:08 PM 42.8872 -97.8703 114° Southeast 504 580 35,000  Level Minneapolis Center
Sun 12:08:10 PM 42.8342 -97.6989 113° Southeast 498 573 35,000  Level Minneapolis Center
Sun 12:09:12 PM 42.7794 -97.5286 114° Southeast 494 568 35,000  Level Minneapolis Center
Sun 12:10:14 PM 42.7244 -97.3597 114° Southeast 492 566 35,000  Level Minneapolis Center
Sun 12:11:16 PM 42.6606 -97.1625 114° Southeast 491 565 35,000  Level Minneapolis Center
Sun 12:12:18 PM 42.6053 -96.9942 114° Southeast 489 563 35,000  Level Minneapolis Center
Sun 12:13:20 PM 42.5489 -96.8219 114° Southeast 494 568 35,000  Level Minneapolis Center
Sun 12:14:21 PM 42.4919 -96.6517 114° Southeast 495 570 35,000  Level Minneapolis Center
Sun 12:15:23 PM 42.4361 -96.4817 114° Southeast 493 567 35,000  Level Minneapolis Center
Sun 12:16:25 PM 42.3789 -96.3133 115° Southeast 492 566 35,000 242 Level Minneapolis Center
Sun 12:17:27 PM 42.3225 -96.1461 114° Southeast 490 564 35,500 677 Climbing Minneapolis Center
Sun 12:18:29 PM 42.2544 -95.9444 114° Southeast 490 564 36,400 677 Climbing Minneapolis Center
Sun 12:19:31 PM 42.1958 -95.7728 115° Southeast 500 575 36,900 290 Climbing Minneapolis Center
Sun 12:20:33 PM 42.1367 -95.6006 115° Southeast 503 579 37,000 48 Climbing Minneapolis Center
Sun 12:21:35 PM 42.0783 -95.4344 115° Southeast 495 570 37,000  Level Minneapolis Center
Sun 12:22:36 PM 42.0203 -95.2664 115° Southeast 495 570 37,000  Level Minneapolis Center
Sun 12:23:38 PM 41.9278 -95.1325 133° Southeast 501 577 37,000  Level Minneapolis Center
Sun 12:24:40 PM 41.7997 -95.0594 157° South 498 573 37,000  Level Minneapolis Center
Sun 12:25:42 PM 41.6714 -94.9908 158° South 494 568 37,000  Level Minneapolis Center
Sun 12:26:44 PM 41.5186 -94.9078 158° South 492 566 37,000  Level Minneapolis Center
Sun 12:27:46 PM 41.4664 -94.7506 114° Southeast 477 549 37,000  Level Minneapolis Center
Sun 12:28:48 PM 41.4622 -94.5761 92° East 469 540 37,000  Level Minneapolis Center
Sun 12:29:50 PM 41.4539 -94.4003 94° East 472 543 37,000  Level Minneapolis Center
Sun 12:30:52 PM 41.4450 -94.2228 94° East 470 541 37,000  Level Minneapolis Center
Sun 12:31:54 PM 41.4372 -94.0514 93° East 467 537 37,000  Level Minneapolis Center
Sun 12:32:56 PM 41.4300 -93.8794 93° East 468 539 37,000  Level Minneapolis Center
Sun 12:33:58 PM 41.4222 -93.7081 93° East 467 537 37,000  Level Minneapolis Center
Sun 12:35:00 PM 41.4131 -93.5008 93° East 469 540 37,000  Level Minneapolis Center
Sun 12:36:02 PM 41.4050 -93.3300 94° East 467 537 37,000 -98 Level Minneapolis Center
Sun 12:37:03 PM 41.3969 -93.1606 94° East 464 534 36,800 -537 Descending Minneapolis Center
Sun 12:38:05 PM 41.3875 -92.9897 94° East 464 534 35,900 -919 Descending Minneapolis Center
Sun 12:39:07 PM 41.3789 -92.8175 94° East 466 536 34,900 -1,034 Descending Minneapolis Center
Sun 12:40:01 PM 41.3694 -92.6519 94° East 452 520 33,900 -983 Descending Chicago Center
Sun 12:41:03 PM 41.3606 -92.4900 94° East 444 511 33,000 -968 Descending Chicago Center
Sun 12:42:05 PM 41.3503 -92.3056 94° East 443 510 31,900 -968 Descending Chicago Center
Sun 12:43:07 PM 41.3403 -92.1378 94° East 454 522 31,000 -435 Descending Chicago Center
Sun 12:44:09 PM 41.3306 -91.9747 94° East 450 518 31,000  Level Chicago Center
Sun 12:45:11 PM 41.3206 -91.8147 95° East 444 511 31,000  Level Chicago Center
Sun 12:46:13 PM 41.3108 -91.6547 95° East 439 505 31,000  Level Chicago Center
Sun 12:47:16 PM 41.2983 -91.4628 95° East 440 506 31,000 -48 Level Chicago Center
Sun 12:48:18 PM 41.2872 -91.3028 95° East 440 506 30,900 -774 Descending Chicago Center
Sun 12:49:20 PM 41.2761 -91.1358 95° East 426 490 29,400 -1,597 Descending Chicago Center
Sun 12:50:22 PM 41.2664 -90.9864 95° East 410 472 27,600 -1,756 Descending Chicago Center
Sun 12:51:23 PM 41.2556 -90.8436 96° East 394 453 25,800 -1,561 Descending Chicago Center
Sun 12:52:25 PM 41.2475 -90.7056 94° East 381 438 24,400 -1,161 Descending Chicago Center
Sun 12:53:27 PM 41.2369 -90.5711 96° East 371 427 23,400 -968 Descending Chicago Center
Sun 12:54:29 PM 41.2264 -90.4397 96° East 361 415 22,400 -968 Descending Chicago Center
Sun 12:55:31 PM 41.1836 -90.3325 118° Southeast 350 403 21,400 -1,065 Descending Chicago Center
Sun 12:56:33 PM 41.0950 -90.2489 145° Southeast 328 377 20,200 -1,065 Descending Chicago Center
Sun 12:57:35 PM 41.0225 -90.1797 144° Southeast 322 371 19,200 -919 Descending Chicago Center
Sun 12:58:37 PM 40.9697 -90.1008 132° Southeast 332 382 18,300 -919 Descending Chicago Center
Sun 12:59:39 PM 40.9942 -89.9428 78° East 375 432 17,300 -898 Descending Chicago Center
Sun 01:00:44 PM 41.0144 -89.8181 78° East 380 437 16,400 -898 Descending Chicago Center
Sun 01:01:46 PM 41.0378 -89.6814 77° East 378 435 15,400 -1,161 Descending Chicago Center
Sun 01:02:48 PM 41.0636 -89.5206 78° East 370 426 14,000 -1,355 Descending Chicago Center
Sun 01:03:50 PM 41.0867 -89.3881 77° East 369 425 12,600 -1,171 Descending Chicago Center
Sun 01:04:51 PM 41.1072 -89.2617 78° East 355 409 11,600 -976 Descending Chicago Center
Sun 01:05:53 PM 41.1289 -89.1375 77° East 342 394 10,600 -823 Descending Chicago Center
Sun 01:06:55 PM 41.1481 -89.0197 78° East 335 386 9,900 -339 Descending Chicago Center
Sun 01:07:57 PM 41.1819 -88.9100 68° East 327 376 9,900 -48 Level Chicago Center
Sun 01:08:59 PM 41.2383 -88.8150 52° Northeast 326 375 9,800 -581 Descending Chicago Center
Sun 01:10:01 PM 41.3042 -88.7097 50° Northeast 318 366 8,700 -1,016 Descending Chicago Center
Sun 01:11:03 PM 41.3575 -88.6236 50° Northeast 309 356 7,700 -968 Descending Chicago Center
Sun 01:12:05 PM 41.4100 -88.5397 50° Northeast 302 348 6,700 -823 Descending Chicago Center
Sun 01:13:07 PM 41.4600 -88.4575 51° Northeast 295 339 6,000 -823 Descending Chicago Center
Sun 01:14:09 PM 41.4839 -88.3603 72° East 290 334 5,000 -484 Descending Chicago Center
Sun 01:15:11 PM 41.5017 -88.2611 77° East 282 325 5,000  Level Chicago Center
Sun 01:16:13 PM 41.5231 -88.1414 77° East 277 319 5,000  Level Chicago Center
Sun 01:17:15 PM 41.5403 -88.0414 77° East 274 315 5,000  Level Chicago Center
Sun 01:18:17 PM 41.5589 -87.9419 76° East 273 314 5,000 -484 Level Chicago Center
Sun 01:19:19 PM 41.5789 -87.8442 75° East 274 315 4,000 -968 Descending Chicago Center
Sun 01:20:21 PM 41.6336 -87.7742 44° Northeast 273 314 3,000 -677 Descending Chicago Center
Sun 01:21:23 PM 41.6831 -87.7114 43° Northeast 260 299 2,600 -290 Descending Chicago Center
Sun 01:22:25 PM 41.7319 -87.6778 27° Northeast 231 266 2,400 -387 Descending Chicago Center
Sun 01:23:27 PM 41.7931 -87.6833 356° North 198 228 1,800 -629 Descending Chicago Center
Sun 01:24:29 PM 41.8086 -87.7236 297° West 175 201 1,100 -677 Descending Chicago Center

Login

Don't have an account? Register now (free) for customized features, flight alerts, and more!